createdAt,value
2017-08-02T00:00:40.755Z,94.84
2017-08-02T00:01:40.735Z,94.84
2017-08-02T00:02:40.714Z,94.93
2017-08-02T00:03:40.694Z,94.74
2017-08-02T00:04:40.676Z,94.84
2017-08-02T00:05:40.654Z,94.84
2017-08-02T00:06:40.635Z,95.21
2017-08-02T00:07:40.615Z,95.03
2017-08-02T00:08:40.588Z,95.12
2017-08-02T00:09:40.572Z,94.84
2017-08-02T00:10:40.546Z,94.93
2017-08-02T00:11:40.528Z,95.03
2017-08-02T00:12:40.508Z,94.84
2017-08-02T00:13:40.188Z,94.93
2017-08-02T00:14:40.554Z,94.93
2017-08-02T00:15:40.448Z,94.93
2017-08-02T00:16:40.424Z,95.03
2017-08-02T00:17:40.404Z,95.03
2017-08-02T00:18:40.384Z,94.84
2017-08-02T00:19:40.361Z,95.03
2017-08-02T00:20:40.343Z,94.74
2017-08-02T00:21:40.320Z,94.74
2017-08-02T00:22:40.300Z,95.03
2017-08-02T00:23:40.281Z,95.17
2017-08-02T00:24:40.262Z,94.35
2017-08-02T00:25:40.238Z,94.4
2017-08-02T00:26:40.217Z,94.12
2017-08-02T00:27:39.900Z,94.21
2017-08-02T00:28:40.178Z,94.49
2017-08-02T00:29:40.156Z,94.31
2017-08-02T00:30:40.136Z,94.21
2017-08-02T00:31:40.122Z,94.31
2017-08-02T00:32:39.799Z,94.79
2017-08-02T00:33:40.078Z,94.59
2017-08-02T00:34:40.053Z,94.69
2017-08-02T00:35:40.034Z,94.59
2017-08-02T00:36:40.013Z,94.35
2017-08-02T00:37:40.013Z,94.59
2017-08-02T00:38:39.676Z,94.31
2017-08-02T00:39:39.656Z,94.54
2017-08-02T00:40:39.933Z,94.49
2017-08-02T00:41:39.915Z,94.26
2017-08-02T00:42:39.892Z,94.17
2017-08-02T00:43:39.869Z,94.45
2017-08-02T00:44:39.556Z,94.45
2017-08-02T00:45:39.827Z,94.35
2017-08-02T00:46:39.812Z,94.54
2017-08-02T00:47:39.787Z,94.26
2017-08-02T00:48:39.778Z,94.45
2017-08-02T00:49:39.747Z,94.74
2017-08-02T00:50:39.732Z,94.54
2017-08-02T00:51:39.709Z,94.26
2017-08-02T00:52:39.690Z,94.45
2017-08-02T00:53:39.669Z,94.26
2017-08-02T00:54:39.654Z,94.17
2017-08-02T00:55:39.629Z,94.26
2017-08-02T00:56:39.601Z,94.35
2017-08-02T00:57:39.585Z,94.12
2017-08-02T00:58:39.565Z,94.07
2017-08-02T00:59:39.542Z,94.26
2017-08-02T01:00:39.532Z,94.54
2017-08-02T01:01:39.504Z,94.54
2017-08-02T01:02:39.481Z,94.07
2017-08-02T01:03:39.463Z,94.07
2017-08-02T01:04:39.146Z,94.35
2017-08-02T01:05:39.424Z,94.45
2017-08-02T01:06:39.400Z,94.74
2017-08-02T01:07:39.381Z,94.54
2017-08-02T01:08:39.358Z,94.93
2017-08-02T01:09:39.353Z,94.93
2017-08-02T01:10:39.321Z,94.84
2017-08-02T01:11:39.300Z,95.03
2017-08-02T01:12:39.277Z,95.12
2017-08-02T01:13:39.259Z,95.21
2017-08-02T01:14:39.236Z,94.74
2017-08-02T01:15:39.217Z,94.84
2017-08-02T01:16:39.209Z,94.54
2017-08-02T01:17:39.174Z,94.93
2017-08-02T01:18:39.153Z,94.84
2017-08-02T01:19:39.133Z,94.84
2017-08-02T01:20:39.115Z,94.93
2017-08-02T01:21:39.096Z,94.64
2017-08-02T01:22:39.074Z,94.74
2017-08-02T01:23:39.055Z,94.84
2017-08-02T01:24:39.034Z,94.54
2017-08-02T01:25:39.010Z,94.64
2017-08-02T01:26:38.992Z,94.64
2017-08-02T01:27:38.970Z,94.93
2017-08-02T01:28:38.953Z,94.54
2017-08-02T01:29:38.932Z,94.93
2017-08-02T01:30:38.914Z,94.64
2017-08-02T01:31:38.897Z,95.12
2017-08-02T01:32:38.871Z,94.64
2017-08-02T01:33:38.848Z,94.74
2017-08-02T01:34:38.827Z,94.64
2017-08-02T01:35:38.806Z,94.64
2017-08-02T01:36:38.787Z,94.74
2017-08-02T01:37:38.764Z,94.64
2017-08-02T01:38:38.747Z,94.74
2017-08-02T01:39:38.728Z,94.64
2017-08-02T01:40:38.704Z,94.93
2017-08-02T01:41:38.392Z,95.03
2017-08-02T01:42:38.368Z,94.93
2017-08-02T01:43:38.644Z,95.03
2017-08-02T01:44:38.625Z,94.93
2017-08-02T01:45:38.603Z,95.41
2017-08-02T01:46:38.583Z,95.31
2017-08-02T01:47:38.559Z,95.31
2017-08-02T01:48:38.545Z,95.51
2017-08-02T01:49:38.524Z,95.51
2017-08-02T01:50:38.501Z,95.51
2017-08-02T01:51:38.477Z,95.31
2017-08-02T01:52:38.461Z,95.26
2017-08-02T01:53:38.437Z,95.51
2017-08-02T01:54:38.419Z,95.31
2017-08-02T01:55:38.401Z,95.31
2017-08-02T01:56:38.376Z,95.31
2017-08-02T01:57:38.355Z,95.31
2017-08-02T01:58:38.335Z,95.26
2017-08-02T01:59:38.019Z,95.26
2017-08-02T02:00:38.293Z,95.17
2017-08-02T02:01:38.277Z,95.17
2017-08-02T02:02:38.252Z,95.94
2017-08-02T02:03:38.230Z,95.56
2017-08-02T02:04:38.211Z,95.56
2017-08-02T02:05:38.190Z,95.75
2017-08-02T02:06:38.171Z,95.65
2017-08-02T02:07:38.152Z,95.36
2017-08-02T02:08:38.140Z,95.46
2017-08-02T02:09:38.123Z,95.46
2017-08-02T02:10:38.086Z,95.46
2017-08-02T02:11:38.066Z,95.65
2017-08-02T02:12:38.046Z,95.75
2017-08-02T02:13:38.025Z,95.46
2017-08-02T02:14:38.003Z,95.46
2017-08-02T02:15:37.985Z,95.17
2017-08-02T02:16:37.968Z,95.36
2017-08-02T02:17:37.945Z,95.36
2017-08-02T02:18:37.923Z,95.65
2017-08-02T02:19:37.900Z,95.65
2017-08-02T02:20:37.883Z,95.36
2017-08-02T02:21:37.862Z,95.36
2017-08-02T02:22:37.841Z,95.46
2017-08-02T02:23:37.819Z,95.65
2017-08-02T02:24:37.798Z,95.26
2017-08-02T02:25:37.779Z,95.65
2017-08-02T02:26:37.757Z,95.26
2017-08-02T02:27:37.736Z,95.51
2017-08-02T02:28:37.716Z,95.41
2017-08-02T02:29:37.694Z,95.98
2017-08-02T02:30:37.673Z,95.41
2017-08-02T02:31:37.654Z,95.12
2017-08-02T02:32:37.635Z,95.31
2017-08-02T02:33:37.617Z,95.51
2017-08-02T02:34:37.593Z,95.31
2017-08-02T02:35:37.571Z,95.03
2017-08-02T02:36:37.552Z,95.21
2017-08-02T02:37:37.533Z,94.74
2017-08-02T02:38:37.512Z,94.74
2017-08-02T02:39:37.493Z,94.93
2017-08-02T02:40:37.527Z,94.64
2017-08-02T02:41:37.452Z,94.54
2017-08-02T02:42:37.437Z,94.84
2017-08-02T02:43:37.405Z,94.93
2017-08-02T02:44:37.389Z,94.93
2017-08-02T02:45:37.367Z,95.12
2017-08-02T02:46:37.346Z,94.35
2017-08-02T02:47:37.325Z,93.97
2017-08-02T02:48:37.311Z,94.84
2017-08-02T02:49:37.303Z,94.26
2017-08-02T02:50:37.262Z,94.07
2017-08-02T02:51:37.248Z,94.17
2017-08-02T02:52:37.221Z,93.97
2017-08-02T02:53:37.200Z,93.97
2017-08-02T02:54:37.180Z,94.26
2017-08-02T02:55:37.162Z,93.88
2017-08-02T02:56:37.141Z,94.64
2017-08-02T02:57:37.125Z,94.84
2017-08-02T02:58:37.097Z,94.84
2017-08-02T02:59:37.077Z,94.79
2017-08-02T03:00:37.058Z,94.84
2017-08-02T03:01:37.038Z,94.5
2017-08-02T03:02:37.015Z,94.69
2017-08-02T03:03:36.993Z,94.79
2017-08-02T03:04:36.978Z,94.98
2017-08-02T03:05:36.951Z,94.98
2017-08-02T03:06:36.936Z,94.89
2017-08-02T03:07:36.911Z,94.98
2017-08-02T03:08:36.894Z,94.98
2017-08-02T03:09:36.878Z,94.98
2017-08-02T03:10:36.848Z,95.26
2017-08-02T03:11:37.062Z,95.17
2017-08-02T03:12:36.810Z,95.26
2017-08-02T03:13:36.788Z,95.17
2017-08-02T03:14:36.765Z,95.46
2017-08-02T03:15:36.747Z,95.26
2017-08-02T03:16:36.722Z,95.36
2017-08-02T03:17:36.701Z,95.46
2017-08-02T03:18:36.685Z,95.26
2017-08-02T03:19:36.667Z,95.46
2017-08-02T03:20:36.643Z,95.17
2017-08-02T03:21:36.621Z,95.36
2017-08-02T03:22:36.598Z,95.26
2017-08-02T03:23:36.581Z,95.36
2017-08-02T03:24:36.557Z,95.46
2017-08-02T03:25:36.539Z,95.26
2017-08-02T03:26:36.519Z,95.36
2017-08-02T03:27:36.197Z,95.36
2017-08-02T03:28:36.473Z,95.17
2017-08-02T03:29:36.454Z,95.36
2017-08-02T03:30:36.434Z,95.36
2017-08-02T03:31:36.414Z,95.26
2017-08-02T03:32:36.393Z,95.07
2017-08-02T03:33:36.369Z,95.26
2017-08-02T03:34:36.351Z,95.07
2017-08-02T03:35:36.328Z,95.07
2017-08-02T03:36:36.312Z,95.17
2017-08-02T03:37:36.285Z,95.46
2017-08-02T03:38:36.266Z,95.26
2017-08-02T03:39:36.245Z,95.26
2017-08-02T03:40:36.239Z,95.26
2017-08-02T03:41:36.206Z,94.98
2017-08-02T03:42:36.184Z,95.26
2017-08-02T03:43:36.162Z,95.26
2017-08-02T03:44:36.140Z,95.36
2017-08-02T03:45:36.127Z,95.36
2017-08-02T03:46:36.102Z,95.26
2017-08-02T03:47:36.082Z,95.26
2017-08-02T03:48:36.057Z,95.17
2017-08-02T03:49:36.041Z,95.56
2017-08-02T03:50:36.017Z,95.46
2017-08-02T03:51:35.997Z,95.26
2017-08-02T03:52:35.973Z,95.26
2017-08-02T03:53:35.953Z,95.17
2017-08-02T03:54:35.939Z,95.17
2017-08-02T03:55:35.912Z,95.36
2017-08-02T03:56:35.890Z,94.89
2017-08-02T03:57:35.870Z,94.89
2017-08-02T03:58:35.849Z,94.98
2017-08-02T03:59:35.830Z,95.56
2017-08-02T04:00:35.810Z,94.89
2017-08-02T04:01:35.789Z,94.89
2017-08-02T04:02:35.771Z,94.79
2017-08-02T04:03:35.746Z,94.98
2017-08-02T04:04:35.727Z,95.07
2017-08-02T04:05:35.709Z,94.79
2017-08-02T04:06:35.683Z,94.79
2017-08-02T04:07:35.664Z,94.79
2017-08-02T04:08:35.646Z,94.79
2017-08-02T04:09:35.622Z,95.17
2017-08-02T04:10:35.601Z,94.98
2017-08-02T04:11:35.584Z,94.79
2017-08-02T04:12:35.564Z,94.79
2017-08-02T04:13:35.549Z,94.79
2017-08-02T04:14:35.520Z,94.98
2017-08-02T04:15:35.503Z,94.98
2017-08-02T04:16:35.532Z,94.98
2017-08-02T04:17:35.462Z,94.98
2017-08-02T04:18:35.442Z,94.79
2017-08-02T04:19:35.417Z,94.89
2017-08-02T04:20:35.397Z,95.07
2017-08-02T04:21:35.380Z,95.07
2017-08-02T04:22:35.358Z,94.79
2017-08-02T04:23:35.039Z,94.69
2017-08-02T04:24:35.316Z,94.89
2017-08-02T04:25:35.293Z,94.98
2017-08-02T04:26:35.274Z,94.98
2017-08-02T04:27:35.256Z,94.98
2017-08-02T04:28:35.233Z,94.79
2017-08-02T04:29:35.210Z,94.98
2017-08-02T04:30:35.189Z,94.59
2017-08-02T04:31:34.882Z,94.59
2017-08-02T04:32:35.150Z,94.59
2017-08-02T04:33:35.133Z,94.59
2017-08-02T04:34:35.112Z,94.5
2017-08-02T04:35:35.090Z,94.5
2017-08-02T04:36:35.068Z,94.59
2017-08-02T04:37:35.046Z,94.64
2017-08-02T04:38:35.033Z,94.93
2017-08-02T04:39:35.006Z,94.45
2017-08-02T04:40:34.992Z,94.26
2017-08-02T04:41:34.967Z,94.07
2017-08-02T04:42:34.946Z,94.54
2017-08-02T04:43:34.922Z,94.26
2017-08-02T04:44:34.904Z,93.97
2017-08-02T04:45:34.911Z,94.35
2017-08-02T04:46:34.870Z,93.49
2017-08-02T04:47:34.842Z,93.68
2017-08-02T04:48:34.825Z,93.78
2017-08-02T04:49:34.805Z,93.68
2017-08-02T04:50:34.785Z,93.73
2017-08-02T04:51:34.763Z,92.96
2017-08-02T04:52:34.742Z,93.06
2017-08-02T04:53:34.726Z,92.86
2017-08-02T04:54:34.702Z,92.77
2017-08-02T04:55:34.685Z,92.48
2017-08-02T04:56:34.368Z,92.39
2017-08-02T04:57:34.644Z,92.19
2017-08-02T04:58:34.628Z,92.48
2017-08-02T04:59:34.612Z,92.48
2017-08-02T05:00:34.286Z,92.1
2017-08-02T05:01:34.614Z,92.29
2017-08-02T05:02:34.543Z,92.1
2017-08-02T05:03:34.526Z,92.1
2017-08-02T05:04:34.504Z,91.72
2017-08-02T05:05:34.484Z,91.52
2017-08-02T05:06:34.467Z,91.33
2017-08-02T05:07:34.448Z,91.33
2017-08-02T05:08:34.430Z,91.14
2017-08-02T05:09:34.111Z,91.33
2017-08-02T05:10:34.387Z,91.38
2017-08-02T05:11:34.073Z,91.33
2017-08-02T05:12:34.349Z,91.24
2017-08-02T05:13:34.329Z,90.99
2017-08-02T05:14:34.772Z,91.19
2017-08-02T05:15:35.113Z,90.99
2017-08-02T05:16:34.654Z,90.9
2017-08-02T05:17:34.255Z,90.9
2017-08-02T05:18:34.235Z,90.42
2017-08-02T05:19:34.850Z,90.52
2017-08-02T05:20:34.811Z,90.8
2017-08-02T05:21:34.641Z,90.7
2017-08-02T05:22:34.161Z,90.42
2017-08-02T05:23:34.151Z,90.22
2017-08-02T05:24:34.121Z,90.61
2017-08-02T05:25:34.099Z,90.32
2017-08-02T05:26:34.083Z,90.13
2017-08-02T05:27:34.060Z,90.03
2017-08-02T05:28:34.045Z,89.55
2017-08-02T05:29:34.355Z,90.27
2017-08-02T05:30:34.005Z,89.69
2017-08-02T05:31:33.983Z,89.69
2017-08-02T05:32:33.969Z,89.69
2017-08-02T05:33:33.952Z,89.69
2017-08-02T05:34:33.931Z,89.5
2017-08-02T05:35:33.914Z,89.5
2017-08-02T05:36:33.894Z,89.6
2017-08-02T05:37:33.878Z,89.12
2017-08-02T05:38:33.879Z,89.4
2017-08-02T05:39:33.838Z,89.5
2017-08-02T05:40:33.521Z,89.22
2017-08-02T05:41:33.800Z,89.5
2017-08-02T05:42:33.777Z,88.93
2017-08-02T05:43:33.762Z,89.02
2017-08-02T05:44:33.753Z,88.93
2017-08-02T05:45:33.429Z,89.4
2017-08-02T05:46:33.409Z,88.83
2017-08-02T05:47:33.388Z,89.02
2017-08-02T05:48:33.372Z,88.93
2017-08-02T05:49:33.356Z,88.54
2017-08-02T05:50:33.332Z,89.02
2017-08-02T05:51:33.613Z,88.64
2017-08-02T05:52:33.591Z,88.73
2017-08-02T05:53:33.573Z,89.02
2017-08-02T05:54:33.560Z,88.16
2017-08-02T05:55:33.538Z,88.35
2017-08-02T05:56:33.521Z,88.35
2017-08-02T05:57:33.499Z,88.16
2017-08-02T05:58:33.479Z,88.35
2017-08-02T05:59:33.465Z,88.45
2017-08-02T06:00:33.444Z,88.25
2017-08-02T06:01:33.426Z,87.96
2017-08-02T06:02:33.405Z,88.25
2017-08-02T06:03:33.388Z,88.35
2017-08-02T06:04:33.374Z,88.16
2017-08-02T06:05:33.350Z,88.16
2017-08-02T06:06:34.119Z,88.25
2017-08-02T06:07:33.710Z,88.06
2017-08-02T06:08:34.027Z,88.16
2017-08-02T06:09:33.547Z,88.16
2017-08-02T06:10:33.258Z,88.06
2017-08-02T06:11:33.239Z,87.77
2017-08-02T06:12:32.923Z,87.96
2017-08-02T06:13:32.905Z,87.58
2017-08-02T06:14:32.885Z,87.87
2017-08-02T06:15:33.165Z,87.77
2017-08-02T06:16:33.147Z,87.96
2017-08-02T06:17:33.125Z,87.77
2017-08-02T06:18:33.104Z,87.87
2017-08-02T06:19:33.329Z,88.16
2017-08-02T06:20:33.068Z,88.54
2017-08-02T06:21:33.052Z,88.45
2017-08-02T06:22:33.032Z,88.73
2017-08-02T06:23:32.714Z,88.73
2017-08-02T06:24:32.991Z,89.02
2017-08-02T06:25:32.975Z,88.73
2017-08-02T06:26:32.952Z,89.12
2017-08-02T06:27:33.619Z,88.83
2017-08-02T06:28:32.795Z,89.12
2017-08-02T06:29:33.058Z,89.69
2017-08-02T06:30:33.125Z,89.4
2017-08-02T06:31:33.104Z,89.5
2017-08-02T06:32:32.841Z,89.22
2017-08-02T06:33:32.818Z,89.4
2017-08-02T06:34:32.804Z,89.31
2017-08-02T06:35:32.783Z,89.4
2017-08-02T06:36:32.762Z,89.6
2017-08-02T06:37:32.749Z,89.6
2017-08-02T06:38:32.950Z,89.79
2017-08-02T06:39:32.708Z,90.17
2017-08-02T06:40:32.685Z,89.98
2017-08-02T06:41:32.667Z,89.89
2017-08-02T06:42:32.646Z,90.37
2017-08-02T06:43:32.627Z,90.37
2017-08-02T06:44:32.608Z,89.98
2017-08-02T06:45:32.588Z,89.98
2017-08-02T06:46:32.572Z,90.17
2017-08-02T06:47:32.552Z,90.27
2017-08-02T06:48:32.529Z,90.17
2017-08-02T06:49:32.821Z,90.27
2017-08-02T06:50:32.500Z,90.08
2017-08-02T06:51:32.473Z,90.27
2017-08-02T06:52:32.456Z,90.08
2017-08-02T06:53:32.435Z,89.79
2017-08-02T06:54:32.637Z,90.12
2017-08-02T06:55:32.114Z,90.03
2017-08-02T06:56:32.128Z,89.54
2017-08-02T06:57:32.183Z,89.36
2017-08-02T06:58:32.064Z,89.07
2017-08-02T06:59:32.323Z,89.64
2017-08-02T07:00:32.010Z,89.5
2017-08-02T07:01:32.285Z,89.01
2017-08-02T07:02:31.973Z,89.11
2017-08-02T07:03:31.957Z,88.92
2017-08-02T07:04:32.238Z,89.45
2017-08-02T07:05:32.216Z,89.3
2017-08-02T07:06:32.198Z,89.5
2017-08-02T07:07:32.180Z,89.59
2017-08-02T07:08:32.162Z,89.59
2017-08-02T07:09:32.140Z,89.3
2017-08-02T07:10:32.591Z,89.5
2017-08-02T07:11:31.811Z,89.5
2017-08-02T07:12:31.825Z,89.59
2017-08-02T07:13:32.070Z,89.69
2017-08-02T07:14:32.051Z,89.78
2017-08-02T07:15:32.034Z,89.01
2017-08-02T07:16:32.020Z,89.21
2017-08-02T07:17:32.217Z,89.4
2017-08-02T07:18:31.939Z,88.73
2017-08-02T07:19:31.962Z,88.73
2017-08-02T07:20:31.948Z,88.87
2017-08-02T07:21:31.634Z,88.57
2017-08-02T07:22:31.616Z,88.57
2017-08-02T07:23:31.601Z,88.39
2017-08-02T07:24:31.877Z,88.39
2017-08-02T07:25:31.859Z,88.29
2017-08-02T07:26:31.843Z,87.81
2017-08-02T07:27:31.826Z,87.27
2017-08-02T07:28:31.812Z,87.27
2017-08-02T07:29:31.790Z,86.02
2017-08-02T07:30:31.778Z,85.78
2017-08-02T07:31:31.764Z,85.91
2017-08-02T07:32:31.746Z,84.95
2017-08-02T07:33:31.730Z,84.18
2017-08-02T07:34:31.719Z,83.94
2017-08-02T07:35:31.697Z,83.55
2017-08-02T07:36:31.684Z,84.03
2017-08-02T07:37:31.670Z,83.64
2017-08-02T07:38:31.653Z,83.01
2017-08-02T07:39:31.670Z,82.62
2017-08-02T07:40:31.627Z,82.43
2017-08-02T07:41:31.611Z,81.9
2017-08-02T07:42:31.595Z,81.22
2017-08-02T07:43:31.583Z,81.32
2017-08-02T07:44:31.573Z,80.93
2017-08-02T07:45:31.557Z,80.74
2017-08-02T07:46:31.544Z,79.91
2017-08-02T07:47:31.534Z,79.52
2017-08-02T07:48:31.520Z,79.33
2017-08-02T07:49:31.508Z,79.24
2017-08-02T07:50:31.501Z,78.66
2017-08-02T07:51:31.482Z,78.36
2017-08-02T07:52:31.463Z,77.69
2017-08-02T07:53:31.454Z,77.69
2017-08-02T07:54:31.440Z,77.59
2017-08-02T07:55:31.423Z,77.11
2017-08-02T07:56:31.414Z,77.11
2017-08-02T07:57:31.398Z,76.63
2017-08-02T07:58:31.389Z,75.85
2017-08-02T07:59:31.378Z,75.76
2017-08-02T08:00:31.363Z,75.51
2017-08-02T08:01:31.349Z,74.83
2017-08-02T08:02:31.335Z,73.96
2017-08-02T08:03:31.326Z,73.71
2017-08-02T08:04:31.591Z,73.52
2017-08-02T08:05:31.391Z,72.64
2017-08-02T08:06:31.296Z,72.55
2017-08-02T08:07:31.280Z,71.48
2017-08-02T08:08:31.266Z,71.48
2017-08-02T08:09:31.257Z,71.48
2017-08-02T08:10:31.246Z,71.3
2017-08-02T08:11:30.936Z,71.3
2017-08-02T08:12:31.221Z,70.23
2017-08-02T08:13:31.210Z,70.04
2017-08-02T08:14:31.205Z,69.2
2017-08-02T08:15:31.192Z,68.43
2017-08-02T08:16:31.189Z,67.94
2017-08-02T08:17:31.174Z,67.79
2017-08-02T08:18:31.161Z,67.01
2017-08-02T08:19:31.151Z,66.17
2017-08-02T08:20:31.142Z,66.47
2017-08-02T08:21:31.182Z,65.2
2017-08-02T08:22:31.124Z,65.11
2017-08-02T08:23:31.114Z,64.82
2017-08-02T08:24:31.109Z,64.79
2017-08-02T08:25:31.097Z,64.89
2017-08-02T08:26:31.085Z,64.31
2017-08-02T08:27:31.082Z,64.62
2017-08-02T08:28:31.070Z,64.79
2017-08-02T08:29:31.056Z,64.5
2017-08-02T08:30:31.046Z,64.5
2017-08-02T08:31:31.731Z,64.89
2017-08-02T08:32:31.292Z,63.92
2017-08-02T08:33:30.824Z,64.11
2017-08-02T08:34:31.011Z,63.73
2017-08-02T08:35:31.002Z,63.82
2017-08-02T08:36:30.991Z,63.89
2017-08-02T08:37:30.982Z,63.79
2017-08-02T08:38:30.973Z,63.69
2017-08-02T08:39:30.963Z,63.69
2017-08-02T08:40:30.949Z,64.08
2017-08-02T08:41:30.940Z,63.6
2017-08-02T08:42:30.931Z,63.31
2017-08-02T08:43:30.921Z,63.69
2017-08-02T08:44:30.907Z,63.02
2017-08-02T08:45:30.600Z,62.63
2017-08-02T08:46:30.892Z,62.92
2017-08-02T08:47:31.133Z,62.82
2017-08-02T08:48:30.861Z,63.02
2017-08-02T08:49:31.240Z,63.11
2017-08-02T08:50:30.844Z,63.02
2017-08-02T08:51:30.831Z,62.73
2017-08-02T08:52:30.870Z,63.02
2017-08-02T08:53:30.809Z,62.82
2017-08-02T08:54:30.797Z,62.34
2017-08-02T08:55:30.695Z,61.47
2017-08-02T08:56:30.728Z,61.4
2017-08-02T08:57:30.760Z,60.72
2017-08-02T08:58:30.749Z,60.92
2017-08-02T08:59:30.741Z,59.98
2017-08-02T09:00:30.730Z,60.3
2017-08-02T09:01:30.720Z,60.11
2017-08-02T09:02:30.715Z,60.57
2017-08-02T09:03:30.698Z,60.95
2017-08-02T09:04:30.389Z,60.57
2017-08-02T09:05:30.678Z,61.72
2017-08-02T09:06:30.385Z,61.43
2017-08-02T09:07:30.663Z,61.24
2017-08-02T09:08:30.645Z,61.24
2017-08-02T09:09:30.637Z,61.24
2017-08-02T09:10:30.621Z,60.75
2017-08-02T09:11:30.313Z,60.11
2017-08-02T09:12:30.735Z,60.01
2017-08-02T09:13:30.884Z,59.91
2017-08-02T09:14:30.634Z,60.08
2017-08-02T09:15:30.569Z,60.75
2017-08-02T09:16:30.557Z,60.75
2017-08-02T09:17:30.550Z,60.47
2017-08-02T09:18:30.537Z,60.57
2017-08-02T09:19:30.525Z,60.75
2017-08-02T09:20:30.522Z,60.47
2017-08-02T09:21:30.210Z,61.15
2017-08-02T09:22:30.509Z,60.92
2017-08-02T09:23:30.189Z,60.82
2017-08-02T09:24:30.175Z,61.02
2017-08-02T09:25:30.470Z,61.3
2017-08-02T09:26:30.165Z,61.89
2017-08-02T09:27:30.147Z,61.66
2017-08-02T09:28:30.427Z,61.5
2017-08-02T09:29:30.122Z,61.37
2017-08-02T09:30:30.406Z,61.76
2017-08-02T09:31:30.390Z,61.21
2017-08-02T09:32:30.085Z,60.82
2017-08-02T09:33:30.373Z,60.92
2017-08-02T09:34:30.356Z,60.17
2017-08-02T09:35:30.344Z,59.31
2017-08-02T09:36:30.336Z,57.5
2017-08-02T09:37:30.187Z,56.75
2017-08-02T09:38:30.318Z,56.56
2017-08-02T09:39:30.299Z,56.29
2017-08-02T09:40:30.292Z,55.42
2017-08-02T09:41:30.282Z,55.42
2017-08-02T09:42:30.271Z,55.22
2017-08-02T09:43:30.260Z,54.67
2017-08-02T09:44:30.248Z,54.09
2017-08-02T09:45:30.534Z,53.61
2017-08-02T09:46:30.230Z,53.34
2017-08-02T09:47:30.221Z,52.76
2017-08-02T09:48:30.212Z,52.28
2017-08-02T09:49:30.202Z,51.81
2017-08-02T09:50:30.197Z,51.93
2017-08-02T09:51:30.193Z,52.13
2017-08-02T09:52:30.180Z,52.5
2017-08-02T09:53:30.167Z,52.59
2017-08-02T09:54:30.158Z,52.98
2017-08-02T09:55:30.145Z,52.28
2017-08-02T09:56:30.139Z,52.11
2017-08-02T09:57:30.126Z,51.72
2017-08-02T09:58:30.119Z,51.35
2017-08-02T09:59:29.812Z,51.75
2017-08-02T10:00:30.103Z,52.4
2017-08-02T10:01:29.916Z,51.33
2017-08-02T10:02:30.085Z,49.99
2017-08-02T10:03:30.078Z,49.07
2017-08-02T10:04:30.164Z,47.54
2017-08-02T10:05:30.057Z,47.34
2017-08-02T10:06:30.050Z,47.15
2017-08-02T10:07:30.041Z,47.17
2017-08-02T10:08:30.043Z,46.11
2017-08-02T10:09:30.509Z,45.62
2017-08-02T10:10:30.489Z,44.45
2017-08-02T10:11:30.444Z,43.52
2017-08-02T10:12:30.195Z,42.74
2017-08-02T10:13:29.999Z,42.47
2017-08-02T10:14:29.993Z,41.01
2017-08-02T10:15:29.988Z,40.45
2017-08-02T10:16:29.981Z,39.2
2017-08-02T10:17:29.784Z,38.73
2017-08-02T10:18:29.968Z,37.96
2017-08-02T10:19:29.966Z,37.3
2017-08-02T10:20:29.957Z,37.37
2017-08-02T10:21:29.953Z,38.82
2017-08-02T10:22:29.950Z,39.84
2017-08-02T10:23:29.946Z,40.11
2017-08-02T10:24:29.941Z,40.88
2017-08-02T10:25:29.935Z,40.75
2017-08-02T10:26:29.924Z,40.66
2017-08-02T10:27:29.924Z,40.37
2017-08-02T10:28:29.917Z,39.88
2017-08-02T10:29:29.915Z,39.61
2017-08-02T10:30:29.903Z,38.93
2017-08-02T10:31:29.900Z,38.65
2017-08-02T10:32:30.192Z,38.38
2017-08-02T10:33:30.336Z,38.2
2017-08-02T10:34:30.272Z,38.57
2017-08-02T10:35:29.880Z,39.14
2017-08-02T10:36:29.874Z,39.24
2017-08-02T10:37:29.868Z,39.72
2017-08-02T10:38:29.860Z,40
2017-08-02T10:39:29.856Z,40.27
2017-08-02T10:40:29.855Z,41.13
2017-08-02T10:41:30.403Z,42.18
2017-08-02T10:42:29.840Z,42.35
2017-08-02T10:43:29.834Z,42.44
2017-08-02T10:44:29.829Z,43.59
2017-08-02T10:45:29.822Z,43.3
2017-08-02T10:46:30.826Z,43.01
2017-08-02T10:47:29.806Z,43.08
2017-08-02T10:48:29.796Z,43.37
2017-08-02T10:49:29.789Z,43.84
2017-08-02T10:50:29.780Z,44.03
2017-08-02T10:51:29.772Z,43.91
2017-08-02T10:52:30.045Z,43.74
2017-08-02T10:53:29.759Z,43.45
2017-08-02T10:54:29.752Z,43.16
2017-08-02T10:55:29.741Z,42.5
2017-08-02T10:56:29.742Z,42.13
2017-08-02T10:57:29.778Z,41.84
2017-08-02T10:58:29.721Z,42.15
2017-08-02T10:59:29.712Z,41.67
2017-08-02T11:00:29.703Z,41.36
2017-08-02T11:01:29.696Z,41.55
2017-08-02T11:02:29.690Z,42.13
2017-08-02T11:03:29.681Z,42.03
2017-08-02T11:04:29.377Z,41.74
2017-08-02T11:05:29.672Z,42.23
2017-08-02T11:06:29.655Z,42.21
2017-08-02T11:07:29.648Z,41.33
2017-08-02T11:08:29.346Z,40.85
2017-08-02T11:09:29.636Z,40.08
2017-08-02T11:10:29.630Z,39.76
2017-08-02T11:11:29.758Z,39.95
2017-08-02T11:12:29.878Z,39.95
2017-08-02T11:13:29.601Z,39.76
2017-08-02T11:14:29.591Z,39.57
2017-08-02T11:15:29.587Z,39.57
2017-08-02T11:16:29.576Z,39.76
2017-08-02T11:17:29.568Z,39.86
2017-08-02T11:18:29.561Z,39.08
2017-08-02T11:19:29.544Z,39.18
2017-08-02T11:20:29.539Z,39.28
2017-08-02T11:21:29.624Z,39.18
2017-08-02T11:22:29.525Z,39.18
2017-08-02T11:23:29.516Z,38.71
2017-08-02T11:24:29.506Z,38.62
2017-08-02T11:25:29.515Z,38.7
2017-08-02T11:26:29.484Z,38.7
2017-08-02T11:27:29.477Z,38.89
2017-08-02T11:28:29.170Z,38.99
2017-08-02T11:29:29.461Z,39.28
2017-08-02T11:30:29.449Z,38.99
2017-08-02T11:31:29.439Z,39.37
2017-08-02T11:32:29.433Z,39.47
2017-08-02T11:33:29.509Z,39.57
2017-08-02T11:34:29.578Z,39.95
2017-08-02T11:35:29.538Z,39.86
2017-08-02T11:36:29.400Z,39.76
2017-08-02T11:37:29.449Z,39.78
2017-08-02T11:38:29.380Z,39.57
2017-08-02T11:39:29.070Z,39.18
2017-08-02T11:40:29.272Z,39.11
2017-08-02T11:41:29.352Z,38.81
2017-08-02T11:42:29.342Z,38.44
2017-08-02T11:43:29.337Z,38.34
2017-08-02T11:44:29.332Z,38.25
2017-08-02T11:45:29.319Z,37.86
2017-08-02T11:46:29.310Z,38.15
2017-08-02T11:47:29.321Z,37.98
2017-08-02T11:48:29.347Z,37.98
2017-08-02T11:49:29.290Z,38.17
2017-08-02T11:50:29.286Z,38.07
2017-08-02T11:51:29.272Z,37.88
2017-08-02T11:52:29.267Z,37.2
2017-08-02T11:53:29.309Z,38.15
2017-08-02T11:54:29.253Z,38.54
2017-08-02T11:55:29.244Z,38.54
2017-08-02T11:56:29.237Z,38.34
2017-08-02T11:57:29.228Z,38.34
2017-08-02T11:58:29.246Z,38.54
2017-08-02T11:59:29.214Z,38.34
2017-08-02T12:00:29.205Z,38.44
2017-08-02T12:01:29.198Z,38.54
2017-08-02T12:02:29.186Z,38.25
2017-08-02T12:03:29.183Z,38.44
2017-08-02T12:04:29.105Z,37.78
2017-08-02T12:05:29.162Z,37.39
2017-08-02T12:06:29.157Z,37.01
2017-08-02T12:07:29.150Z,37.01
2017-08-02T12:08:29.735Z,37.3
2017-08-02T12:09:29.135Z,37.1
2017-08-02T12:10:28.920Z,37.1
2017-08-02T12:11:29.122Z,36.91
2017-08-02T12:12:29.114Z,36.93
2017-08-02T12:13:29.101Z,36.73
2017-08-02T12:14:29.097Z,36.63
2017-08-02T12:15:28.791Z,37.12
2017-08-02T12:16:29.080Z,37.59
2017-08-02T12:17:29.076Z,38.06
2017-08-02T12:18:29.074Z,38.64
2017-08-02T12:19:29.058Z,38.81
2017-08-02T12:20:29.048Z,39.29
2017-08-02T12:21:29.044Z,39.01
2017-08-02T12:22:29.034Z,39.01
2017-08-02T12:23:29.024Z,39.29
2017-08-02T12:24:29.016Z,38.81
2017-08-02T12:25:29.006Z,39.12
2017-08-02T12:26:28.994Z,39.12
2017-08-02T12:27:28.991Z,38.93
2017-08-02T12:28:28.979Z,38.54
2017-08-02T12:29:28.968Z,38.93
2017-08-02T12:30:28.961Z,38.91
2017-08-02T12:31:28.958Z,39.39
2017-08-02T12:32:29.000Z,39.11
2017-08-02T12:33:28.931Z,39.01
2017-08-02T12:34:28.626Z,38.91
2017-08-02T12:35:28.919Z,38.73
2017-08-02T12:36:28.906Z,38.83
2017-08-02T12:37:28.920Z,38.64
2017-08-02T12:38:28.889Z,38.54
2017-08-02T12:39:28.875Z,38.34
2017-08-02T12:40:28.869Z,38.15
2017-08-02T12:41:28.858Z,37.88
2017-08-02T12:42:28.899Z,37.2
2017-08-02T12:43:28.842Z,36.73
2017-08-02T12:44:28.834Z,36.54
2017-08-02T12:45:28.825Z,35.66
2017-08-02T12:46:28.813Z,35.76
2017-08-02T12:47:28.817Z,35.57
2017-08-02T12:48:28.799Z,35.39
2017-08-02T12:49:28.791Z,35.76
2017-08-02T12:50:28.783Z,35.37
2017-08-02T12:51:28.785Z,35.57
2017-08-02T12:52:28.769Z,35.76
2017-08-02T12:53:28.756Z,35.27
2017-08-02T12:54:28.751Z,34.59